Clayton, Mississippi
Current Conditions -  °F | °C
As of 2:55 PM on Thursday 18 Dec 2014 (Local Time) from KUTA Reporting Station
Broken Clouds Broken Clouds  
Wind Chill: 42°   Ceiling: 2600
Heat Index: 45°   Visibility: 10mi
Dew Point: 37°   Wind: 5mph
Humidity: 76%   Direction: 350°N
Pressure: 30.18"   Gusts: NA
Location:  34.5324°N, 90.3891°W
Report Text: KUTA 182055Z AUTO 35004KT 10SM SCT020 BKN026 07/03 A3018 RMK AO2
Loading
Personal Weather Stations






























Interactive Weather Map New forecast layout! Learn more

10-Day Weather Forecast

Advertisements
Track Severe Weather on mobile